sensor_id;sensor_type;location;lat;lon;timestamp;temperature;humidity
80232;DHT22;74189;42.124;24.752;2024-02-15T00:00:18;10.00;49.10
80232;DHT22;74189;42.124;24.752;2024-02-15T00:02:44;10.00;48.50
80232;DHT22;74189;42.124;24.752;2024-02-15T00:05:12;10.10;48.60
80232;DHT22;74189;42.124;24.752;2024-02-15T00:07:38;10.00;48.80
80232;DHT22;74189;42.124;24.752;2024-02-15T00:10:05;9.90;49.00
80232;DHT22;74189;42.124;24.752;2024-02-15T00:12:32;9.90;49.00
80232;DHT22;74189;42.124;24.752;2024-02-15T00:14:58;9.90;49.00
80232;DHT22;74189;42.124;24.752;2024-02-15T00:17:25;9.90;49.00
80232;DHT22;74189;42.124;24.752;2024-02-15T00:19:51;9.80;49.10
80232;DHT22;74189;42.124;24.752;2024-02-15T00:22:17;9.90;48.70
80232;DHT22;74189;42.124;24.752;2024-02-15T00:24:45;9.80;49.10
80232;DHT22;74189;42.124;24.752;2024-02-15T00:27:12;9.80;49.20
80232;DHT22;74189;42.124;24.752;2024-02-15T00:29:38;9.80;48.70
80232;DHT22;74189;42.124;24.752;2024-02-15T00:32:06;9.60;49.30
80232;DHT22;74189;42.124;24.752;2024-02-15T00:34:32;9.50;49.30
80232;DHT22;74189;42.124;24.752;2024-02-15T00:36:59;9.50;49.90
80232;DHT22;74189;42.124;24.752;2024-02-15T00:39:25;9.50;50.00
80232;DHT22;74189;42.124;24.752;2024-02-15T00:41:52;9.60;49.40
80232;DHT22;74189;42.124;24.752;2024-02-15T00:44:18;9.60;49.40
80232;DHT22;74189;42.124;24.752;2024-02-15T00:46:44;9.80;49.10
80232;DHT22;74189;42.124;24.752;2024-02-15T00:49:12;9.80;49.00
80232;DHT22;74189;42.124;24.752;2024-02-15T00:51:38;9.70;49.40
80232;DHT22;74189;42.124;24.752;2024-02-15T00:54:05;9.80;48.80
80232;DHT22;74189;42.124;24.752;2024-02-15T00:56:31;9.60;49.20
80232;DHT22;74189;42.124;24.752;2024-02-15T00:59:01;9.60;49.90
80232;DHT22;74189;42.124;24.752;2024-02-15T01:01:29;9.50;49.70
80232;DHT22;74189;42.124;24.752;2024-02-15T01:03:55;9.40;50.00
80232;DHT22;74189;42.124;24.752;2024-02-15T01:06:21;9.50;50.00
80232;DHT22;74189;42.124;24.752;2024-02-15T01:08:48;9.40;49.90
80232;DHT22;74189;42.124;24.752;2024-02-15T01:11:14;9.40;49.90
80232;DHT22;74189;42.124;24.752;2024-02-15T01:13:40;9.40;49.80
80232;DHT22;74189;42.124;24.752;2024-02-15T01:16:07;9.40;50.00
80232;DHT22;74189;42.124;24.752;2024-02-15T01:18:34;9.30;50.00
80232;DHT22;74189;42.124;24.752;2024-02-15T01:21:00;9.30;50.30
80232;DHT22;74189;42.124;24.752;2024-02-15T01:23:27;9.20;50.50
80232;DHT22;74189;42.124;24.752;2024-02-15T01:25:53;9.10;50.90
80232;DHT22;74189;42.124;24.752;2024-02-15T01:28:19;9.10;50.70
80232;DHT22;74189;42.124;24.752;2024-02-15T01:30:45;9.20;51.10
80232;DHT22;74189;42.124;24.752;2024-02-15T01:33:12;9.20;50.80
80232;DHT22;74189;42.124;24.752;2024-02-15T01:35:39;9.30;50.60
80232;DHT22;74189;42.124;24.752;2024-02-15T01:38:05;9.40;50.00
80232;DHT22;74189;42.124;24.752;2024-02-15T01:40:32;9.50;49.50
80232;DHT22;74189;42.124;24.752;2024-02-15T01:42:58;9.40;49.80
80232;DHT22;74189;42.124;24.752;2024-02-15T01:45:25;9.30;50.30
80232;DHT22;74189;42.124;24.752;2024-02-15T01:47:53;9.10;50.80
80232;DHT22;74189;42.124;24.752;2024-02-15T01:50:20;9.20;50.90
80232;DHT22;74189;42.124;24.752;2024-02-15T01:52:48;9.10;50.90
80232;DHT22;74189;42.124;24.752;2024-02-15T01:55:17;9.10;50.60
80232;DHT22;74189;42.124;24.752;2024-02-15T01:57:45;9.10;50.70
80232;DHT22;74189;42.124;24.752;2024-02-15T02:00:18;9.00;51.10
80232;DHT22;74189;42.124;24.752;2024-02-15T02:02:45;8.80;51.20
80232;DHT22;74189;42.124;24.752;2024-02-15T02:05:13;8.80;51.50
80232;DHT22;74189;42.124;24.752;2024-02-15T02:07:39;8.90;51.50
80232;DHT22;74189;42.124;24.752;2024-02-15T02:10:07;8.90;51.00
80232;DHT22;74189;42.124;24.752;2024-02-15T02:12:33;8.80;51.00
80232;DHT22;74189;42.124;24.752;2024-02-15T02:15:00;8.80;51.30
80232;DHT22;74189;42.124;24.752;2024-02-15T02:17:26;8.70;50.80
80232;DHT22;74189;42.124;24.752;2024-02-15T02:19:52;8.60;51.20
80232;DHT22;74189;42.124;24.752;2024-02-15T02:22:19;8.60;51.30
80232;DHT22;74189;42.124;24.752;2024-02-15T02:24:59;8.70;51.40
80232;DHT22;74189;42.124;24.752;2024-02-15T02:27:29;8.70;51.20
80232;DHT22;74189;42.124;24.752;2024-02-15T02:29:57;8.80;50.90
80232;DHT22;74189;42.124;24.752;2024-02-15T02:32:26;8.70;52.20
80232;DHT22;74189;42.124;24.752;2024-02-15T02:34:53;8.60;52.20
80232;DHT22;74189;42.124;24.752;2024-02-15T02:37:26;8.50;51.40
80232;DHT22;74189;42.124;24.752;2024-02-15T02:39:52;8.50;51.60
80232;DHT22;74189;42.124;24.752;2024-02-15T02:42:19;8.50;51.70
80232;DHT22;74189;42.124;24.752;2024-02-15T02:44:45;8.50;51.70
80232;DHT22;74189;42.124;24.752;2024-02-15T02:47:11;8.50;51.70
80232;DHT22;74189;42.124;24.752;2024-02-15T02:49:38;8.60;51.50
80232;DHT22;74189;42.124;24.752;2024-02-15T02:52:04;8.50;51.20
80232;DHT22;74189;42.124;24.752;2024-02-15T02:54:31;8.30;51.90
80232;DHT22;74189;42.124;24.752;2024-02-15T02:56:57;8.30;51.90
80232;DHT22;74189;42.124;24.752;2024-02-15T02:59:24;8.30;52.00
80232;DHT22;74189;42.124;24.752;2024-02-15T03:01:51;8.30;52.10
80232;DHT22;74189;42.124;24.752;2024-02-15T03:04:17;8.40;51.80
80232;DHT22;74189;42.124;24.752;2024-02-15T03:06:44;8.50;51.90
80232;DHT22;74189;42.124;24.752;2024-02-15T03:09:11;8.50;51.80
80232;DHT22;74189;42.124;24.752;2024-02-15T03:11:40;8.70;51.00
80232;DHT22;74189;42.124;24.752;2024-02-15T03:14:06;8.70;50.70
80232;DHT22;74189;42.124;24.752;2024-02-15T03:16:32;8.50;51.10
80232;DHT22;74189;42.124;24.752;2024-02-15T03:19:00;8.70;51.10
80232;DHT22;74189;42.124;24.752;2024-02-15T03:21:29;8.50;51.50
80232;DHT22;74189;42.124;24.752;2024-02-15T03:23:55;8.50;51.60
80232;DHT22;74189;42.124;24.752;2024-02-15T03:26:31;8.50;51.70
80232;DHT22;74189;42.124;24.752;2024-02-15T03:29:04;8.50;51.00
80232;DHT22;74189;42.124;24.752;2024-02-15T03:31:31;8.40;51.60
80232;DHT22;74189;42.124;24.752;2024-02-15T03:33:58;8.40;51.50
80232;DHT22;74189;42.124;24.752;2024-02-15T03:36:25;8.40;51.50
80232;DHT22;74189;42.124;24.752;2024-02-15T03:38:51;8.50;51.10
80232;DHT22;74189;42.124;24.752;2024-02-15T03:41:20;8.40;51.30
80232;DHT22;74189;42.124;24.752;2024-02-15T03:43:46;8.40;51.40
80232;DHT22;74189;42.124;24.752;2024-02-15T03:46:13;8.40;51.50
80232;DHT22;74189;42.124;24.752;2024-02-15T03:48:42;8.70;51.10
80232;DHT22;74189;42.124;24.752;2024-02-15T03:51:16;8.60;50.80
80232;DHT22;74189;42.124;24.752;2024-02-15T03:53:44;8.60;50.60
80232;DHT22;74189;42.124;24.752;2024-02-15T03:56:10;8.70;50.70
80232;DHT22;74189;42.124;24.752;2024-02-15T03:58:38;8.50;50.80
80232;DHT22;74189;42.124;24.752;2024-02-15T04:01:04;8.50;51.10
80232;DHT22;74189;42.124;24.752;2024-02-15T04:03:32;8.50;51.10
80232;DHT22;74189;42.124;24.752;2024-02-15T04:06:00;8.50;50.90
80232;DHT22;74189;42.124;24.752;2024-02-15T04:08:29;8.50;51.20
80232;DHT22;74189;42.124;24.752;2024-02-15T04:10:56;8.70;51.30
80232;DHT22;74189;42.124;24.752;2024-02-15T04:13:25;8.80;51.10
80232;DHT22;74189;42.124;24.752;2024-02-15T04:15:51;8.80;50.30
80232;DHT22;74189;42.124;24.752;2024-02-15T04:18:19;8.70;50.20
80232;DHT22;74189;42.124;24.752;2024-02-15T04:20:45;8.60;50.90
80232;DHT22;74189;42.124;24.752;2024-02-15T04:23:12;8.70;50.40
80232;DHT22;74189;42.124;24.752;2024-02-15T04:25:39;8.60;51.00
80232;DHT22;74189;42.124;24.752;2024-02-15T04:28:06;8.70;50.40
80232;DHT22;74189;42.124;24.752;2024-02-15T04:30:34;8.60;50.80
80232;DHT22;74189;42.124;24.752;2024-02-15T04:33:07;8.50;51.20
80232;DHT22;74189;42.124;24.752;2024-02-15T04:35:34;8.60;51.30
80232;DHT22;74189;42.124;24.752;2024-02-15T04:38:01;8.70;50.50
80232;DHT22;74189;42.124;24.752;2024-02-15T04:40:29;8.70;50.00
80232;DHT22;74189;42.124;24.752;2024-02-15T04:42:56;8.70;49.90
80232;DHT22;74189;42.124;24.752;2024-02-15T04:45:24;8.70;50.00
80232;DHT22;74189;42.124;24.752;2024-02-15T04:47:50;8.60;50.30
80232;DHT22;74189;42.124;24.752;2024-02-15T04:50:18;8.50;51.00
80232;DHT22;74189;42.124;24.752;2024-02-15T04:52:44;8.60;50.50
80232;DHT22;74189;42.124;24.752;2024-02-15T04:55:12;8.70;50.50
80232;DHT22;74189;42.124;24.752;2024-02-15T04:57:38;8.70;50.40
80232;DHT22;74189;42.124;24.752;2024-02-15T05:00:08;8.70;50.40
80232;DHT22;74189;42.124;24.752;2024-02-15T05:02:40;8.80;50.20
80232;DHT22;74189;42.124;24.752;2024-02-15T05:05:10;8.80;50.00
80232;DHT22;74189;42.124;24.752;2024-02-15T05:07:39;8.80;50.00
80232;DHT22;74189;42.124;24.752;2024-02-15T05:10:09;8.80;49.90
80232;DHT22;74189;42.124;24.752;2024-02-15T05:12:37;8.80;50.10
80232;DHT22;74189;42.124;24.752;2024-02-15T05:15:04;8.70;50.10
80232;DHT22;74189;42.124;24.752;2024-02-15T05:17:40;8.80;51.10
80232;DHT22;74189;42.124;24.752;2024-02-15T05:20:08;8.80;50.10
80232;DHT22;74189;42.124;24.752;2024-02-15T05:22:38;8.80;50.30
80232;DHT22;74189;42.124;24.752;2024-02-15T05:25:08;8.70;50.40
80232;DHT22;74189;42.124;24.752;2024-02-15T05:27:35;8.70;50.80
80232;DHT22;74189;42.124;24.752;2024-02-15T05:30:03;8.60;51.10
80232;DHT22;74189;42.124;24.752;2024-02-15T05:32:33;8.60;51.10
80232;DHT22;74189;42.124;24.752;2024-02-15T05:35:10;8.70;50.70
80232;DHT22;74189;42.124;24.752;2024-02-15T05:37:39;8.80;50.30
80232;DHT22;74189;42.124;24.752;2024-02-15T05:40:06;8.90;50.30
80232;DHT22;74189;42.124;24.752;2024-02-15T05:42:33;8.90;50.20
80232;DHT22;74189;42.124;24.752;2024-02-15T05:45:36;9.00;50.00
80232;DHT22;74189;42.124;24.752;2024-02-15T05:48:04;9.10;49.30
80232;DHT22;74189;42.124;24.752;2024-02-15T05:50:33;9.20;49.40
80232;DHT22;74189;42.124;24.752;2024-02-15T05:52:59;9.10;49.40
80232;DHT22;74189;42.124;24.752;2024-02-15T05:55:27;9.10;49.40
80232;DHT22;74189;42.124;24.752;2024-02-15T05:57:57;9.10;49.40
80232;DHT22;74189;42.124;24.752;2024-02-15T06:00:23;9.10;49.40
80232;DHT22;74189;42.124;24.752;2024-02-15T06:02:49;9.10;49.70
80232;DHT22;74189;42.124;24.752;2024-02-15T06:05:16;9.00;49.70
80232;DHT22;74189;42.124;24.752;2024-02-15T06:07:43;9.10;49.70
80232;DHT22;74189;42.124;24.752;2024-02-15T06:10:10;9.20;49.20
80232;DHT22;74189;42.124;24.752;2024-02-15T06:12:36;9.20;50.40
80232;DHT22;74189;42.124;24.752;2024-02-15T06:15:04;9.20;49.30
80232;DHT22;74189;42.124;24.752;2024-02-15T06:17:31;9.20;49.70
80232;DHT22;74189;42.124;24.752;2024-02-15T06:19:57;9.20;49.20
80232;DHT22;74189;42.124;24.752;2024-02-15T06:22:23;9.10;49.90
80232;DHT22;74189;42.124;24.752;2024-02-15T06:24:50;9.10;49.50
80232;DHT22;74189;42.124;24.752;2024-02-15T06:27:17;9.20;49.60
80232;DHT22;74189;42.124;24.752;2024-02-15T06:29:43;9.30;49.30
80232;DHT22;74189;42.124;24.752;2024-02-15T06:32:27;9.30;49.30
80232;DHT22;74189;42.124;24.752;2024-02-15T06:35:15;9.20;49.40
80232;DHT22;74189;42.124;24.752;2024-02-15T06:38:00;9.10;50.90
80232;DHT22;74189;42.124;24.752;2024-02-15T06:40:44;9.10;50.00
80232;DHT22;74189;42.124;24.752;2024-02-15T06:43:14;9.30;49.40
80232;DHT22;74189;42.124;24.752;2024-02-15T06:45:40;9.50;48.60
80232;DHT22;74189;42.124;24.752;2024-02-15T06:48:10;9.70;48.20
80232;DHT22;74189;42.124;24.752;2024-02-15T06:50:36;9.80;48.10
80232;DHT22;74189;42.124;24.752;2024-02-15T06:53:03;9.80;47.80
80232;DHT22;74189;42.124;24.752;2024-02-15T06:55:29;9.50;48.40
80232;DHT22;74189;42.124;24.752;2024-02-15T06:57:56;9.50;49.80
80232;DHT22;74189;42.124;24.752;2024-02-15T07:00:23;9.70;48.30
80232;DHT22;74189;42.124;24.752;2024-02-15T07:02:50;9.50;48.60
80232;DHT22;74189;42.124;24.752;2024-02-15T07:05:17;9.70;48.30
80232;DHT22;74189;42.124;24.752;2024-02-15T07:07:43;9.80;47.70
80232;DHT22;74189;42.124;24.752;2024-02-15T07:10:09;9.60;48.50
80232;DHT22;74189;42.124;24.752;2024-02-15T07:12:36;9.70;48.80
80232;DHT22;74189;42.124;24.752;2024-02-15T07:15:05;9.70;48.60
80232;DHT22;74189;42.124;24.752;2024-02-15T07:17:32;9.80;48.20
80232;DHT22;74189;42.124;24.752;2024-02-15T07:19:59;9.90;48.10
80232;DHT22;74189;42.124;24.752;2024-02-15T07:22:25;10.10;47.50
80232;DHT22;74189;42.124;24.752;2024-02-15T07:24:51;10.20;46.90
80232;DHT22;74189;42.124;24.752;2024-02-15T07:27:18;10.20;46.70
80232;DHT22;74189;42.124;24.752;2024-02-15T07:29:44;10.20;46.80
80232;DHT22;74189;42.124;24.752;2024-02-15T07:32:10;10.30;46.50
80232;DHT22;74189;42.124;24.752;2024-02-15T07:34:38;10.30;46.80
80232;DHT22;74189;42.124;24.752;2024-02-15T07:37:07;10.30;46.80
80232;DHT22;74189;42.124;24.752;2024-02-15T07:39:35;10.30;46.90
80232;DHT22;74189;42.124;24.752;2024-02-15T07:42:02;10.40;45.90
80232;DHT22;74189;42.124;24.752;2024-02-15T07:44:30;10.30;46.50
80232;DHT22;74189;42.124;24.752;2024-02-15T07:46:58;10.30;46.60
80232;DHT22;74189;42.124;24.752;2024-02-15T07:49:27;10.20;46.30
80232;DHT22;74189;42.124;24.752;2024-02-15T07:51:54;10.20;47.00
80232;DHT22;74189;42.124;24.752;2024-02-15T07:54:20;10.20;47.40
80232;DHT22;74189;42.124;24.752;2024-02-15T07:56:47;10.20;46.70
80232;DHT22;74189;42.124;24.752;2024-02-15T07:59:16;10.10;47.20
80232;DHT22;74189;42.124;24.752;2024-02-15T08:01:43;10.10;47.10
80232;DHT22;74189;42.124;24.752;2024-02-15T08:04:12;10.10;47.00
80232;DHT22;74189;42.124;24.752;2024-02-15T08:06:38;10.10;47.10
80232;DHT22;74189;42.124;24.752;2024-02-15T08:09:04;9.90;47.30
80232;DHT22;74189;42.124;24.752;2024-02-15T08:11:42;10.10;47.10
80232;DHT22;74189;42.124;24.752;2024-02-15T08:14:08;10.20;46.60
80232;DHT22;74189;42.124;24.752;2024-02-15T08:16:37;10.10;46.90
80232;DHT22;74189;42.124;24.752;2024-02-15T08:19:04;10.00;46.70
80232;DHT22;74189;42.124;24.752;2024-02-15T08:21:31;10.00;47.20
80232;DHT22;74189;42.124;24.752;2024-02-15T08:24:04;9.80;47.70
80232;DHT22;74189;42.124;24.752;2024-02-15T08:26:39;9.80;47.90
80232;DHT22;74189;42.124;24.752;2024-02-15T08:29:05;9.90;47.50
80232;DHT22;74189;42.124;24.752;2024-02-15T08:31:35;9.80;47.90
80232;DHT22;74189;42.124;24.752;2024-02-15T08:34:02;10.00;47.40
80232;DHT22;74189;42.124;24.752;2024-02-15T08:36:31;10.00;47.40
80232;DHT22;74189;42.124;24.752;2024-02-15T08:38:58;10.10;47.00
80232;DHT22;74189;42.124;24.752;2024-02-15T08:41:24;10.10;46.90
80232;DHT22;74189;42.124;24.752;2024-02-15T08:43:53;10.10;47.30
80232;DHT22;74189;42.124;24.752;2024-02-15T08:46:20;10.20;47.20
80232;DHT22;74189;42.124;24.752;2024-02-15T08:48:47;10.20;47.10
80232;DHT22;74189;42.124;24.752;2024-02-15T08:51:13;10.40;46.70
80232;DHT22;74189;42.124;24.752;2024-02-15T08:53:40;10.50;46.10
80232;DHT22;74189;42.124;24.752;2024-02-15T08:56:06;10.30;46.50
80232;DHT22;74189;42.124;24.752;2024-02-15T08:58:35;10.20;47.30
80232;DHT22;74189;42.124;24.752;2024-02-15T09:01:01;10.30;47.60
80232;DHT22;74189;42.124;24.752;2024-02-15T09:03:28;10.50;47.00
80232;DHT22;74189;42.124;24.752;2024-02-15T09:05:55;10.60;46.70
80232;DHT22;74189;42.124;24.752;2024-02-15T09:08:21;10.60;46.40
80232;DHT22;74189;42.124;24.752;2024-02-15T09:10:49;10.40;46.40
80232;DHT22;74189;42.124;24.752;2024-02-15T09:13:16;10.50;46.80
80232;DHT22;74189;42.124;24.752;2024-02-15T09:15:42;10.60;46.30
80232;DHT22;74189;42.124;24.752;2024-02-15T09:18:08;10.50;46.80
80232;DHT22;74189;42.124;24.752;2024-02-15T09:20:38;10.70;46.40
80232;DHT22;74189;42.124;24.752;2024-02-15T09:23:10;10.50;45.90
80232;DHT22;74189;42.124;24.752;2024-02-15T09:25:38;10.50;46.60
80232;DHT22;74189;42.124;24.752;2024-02-15T09:28:04;10.60;45.90
80232;DHT22;74189;42.124;24.752;2024-02-15T09:30:31;10.60;46.40
80232;DHT22;74189;42.124;24.752;2024-02-15T09:32:57;10.70;45.90
80232;DHT22;74189;42.124;24.752;2024-02-15T09:35:24;10.80;45.50
80232;DHT22;74189;42.124;24.752;2024-02-15T09:37:51;10.70;45.50
80232;DHT22;74189;42.124;24.752;2024-02-15T09:40:19;10.60;45.60
80232;DHT22;74189;42.124;24.752;2024-02-15T09:42:46;10.70;46.10
80232;DHT22;74189;42.124;24.752;2024-02-15T09:45:13;10.80;45.10
80232;DHT22;74189;42.124;24.752;2024-02-15T09:47:41;10.60;45.90
80232;DHT22;74189;42.124;24.752;2024-02-15T09:50:17;10.60;45.50
80232;DHT22;74189;42.124;24.752;2024-02-15T09:52:51;10.70;45.90
80232;DHT22;74189;42.124;24.752;2024-02-15T09:55:18;10.80;45.80
80232;DHT22;74189;42.124;24.752;2024-02-15T09:57:46;10.90;45.80
80232;DHT22;74189;42.124;24.752;2024-02-15T10:00:15;10.90;45.30
80232;DHT22;74189;42.124;24.752;2024-02-15T10:02:44;11.00;45.70
80232;DHT22;74189;42.124;24.752;2024-02-15T10:05:13;11.10;45.00
80232;DHT22;74189;42.124;24.752;2024-02-15T10:07:44;11.20;45.30
80232;DHT22;74189;42.124;24.752;2024-02-15T10:10:21;11.40;45.10
80232;DHT22;74189;42.124;24.752;2024-02-15T10:12:48;11.40;45.00
80232;DHT22;74189;42.124;24.752;2024-02-15T10:15:31;11.50;45.00
80232;DHT22;74189;42.124;24.752;2024-02-15T10:17:58;11.60;44.20
80232;DHT22;74189;42.124;24.752;2024-02-15T10:20:25;11.50;44.30
80232;DHT22;74189;42.124;24.752;2024-02-15T10:25:28;11.90;43.90
80232;DHT22;74189;42.124;24.752;2024-02-15T10:28:05;11.80;44.10
80232;DHT22;74189;42.124;24.752;2024-02-15T10:30:46;11.90;44.10
80232;DHT22;74189;42.124;24.752;2024-02-15T10:33:32;12.00;43.20
80232;DHT22;74189;42.124;24.752;2024-02-15T10:36:13;12.10;42.70
80232;DHT22;74189;42.124;24.752;2024-02-15T10:38:40;12.10;42.70
80232;DHT22;74189;42.124;24.752;2024-02-15T10:41:07;12.00;43.30
80232;DHT22;74189;42.124;24.752;2024-02-15T10:43:37;12.00;42.90
80232;DHT22;74189;42.124;24.752;2024-02-15T10:46:05;12.00;43.50
80232;DHT22;74189;42.124;24.752;2024-02-15T10:48:36;12.00;43.50
80232;DHT22;74189;42.124;24.752;2024-02-15T10:51:04;12.00;42.30
80232;DHT22;74189;42.124;24.752;2024-02-15T10:53:35;11.70;43.10
80232;DHT22;74189;42.124;24.752;2024-02-15T10:56:18;11.50;43.60
80232;DHT22;74189;42.124;24.752;2024-02-15T10:59:16;11.60;43.60
80232;DHT22;74189;42.124;24.752;2024-02-15T11:01:43;11.80;43.30
80232;DHT22;74189;42.124;24.752;2024-02-15T11:04:14;11.90;42.70
80232;DHT22;74189;42.124;24.752;2024-02-15T11:06:43;12.00;43.30
80232;DHT22;74189;42.124;24.752;2024-02-15T11:09:11;12.10;43.10
80232;DHT22;74189;42.124;24.752;2024-02-15T11:11:41;12.20;42.60
80232;DHT22;74189;42.124;24.752;2024-02-15T11:14:29;12.40;42.50
80232;DHT22;74189;42.124;24.752;2024-02-15T11:16:56;12.50;42.30
80232;DHT22;74189;42.124;24.752;2024-02-15T11:22:11;12.60;40.60
80232;DHT22;74189;42.124;24.752;2024-02-15T11:24:50;12.50;41.40
80232;DHT22;74189;42.124;24.752;2024-02-15T11:27:43;12.60;41.10
80232;DHT22;74189;42.124;24.752;2024-02-15T11:30:33;12.60;41.80
80232;DHT22;74189;42.124;24.752;2024-02-15T11:33:29;12.60;41.50
80232;DHT22;74189;42.124;24.752;2024-02-15T11:36:09;12.70;40.80
80232;DHT22;74189;42.124;24.752;2024-02-15T11:38:39;12.70;41.30
80232;DHT22;74189;42.124;24.752;2024-02-15T11:41:18;13.00;41.00
80232;DHT22;74189;42.124;24.752;2024-02-15T11:43:47;13.00;41.20
80232;DHT22;74189;42.124;24.752;2024-02-15T11:46:25;13.10;40.80
80232;DHT22;74189;42.124;24.752;2024-02-15T11:48:53;13.10;39.80
80232;DHT22;74189;42.124;24.752;2024-02-15T11:54:03;13.30;39.70
80232;DHT22;74189;42.124;24.752;2024-02-15T11:59:17;13.40;39.40
80232;DHT22;74189;42.124;24.752;2024-02-15T12:01:58;13.30;39.80
80232;DHT22;74189;42.124;24.752;2024-02-15T12:04:43;13.30;39.90
80232;DHT22;74189;42.124;24.752;2024-02-15T12:07:29;13.30;39.90
80232;DHT22;74189;42.124;24.752;2024-02-15T12:10:17;13.40;40.00
80232;DHT22;74189;42.124;24.752;2024-02-15T12:13:03;13.60;39.10
80232;DHT22;74189;42.124;24.752;2024-02-15T12:16:01;13.70;39.20
80232;DHT22;74189;42.124;24.752;2024-02-15T12:18:46;13.80;38.60
80232;DHT22;74189;42.124;24.752;2024-02-15T12:21:24;13.60;38.50
80232;DHT22;74189;42.124;24.752;2024-02-15T12:23:53;13.60;38.80
80232;DHT22;74189;42.124;24.752;2024-02-15T12:26:22;13.30;39.30
80232;DHT22;74189;42.124;24.752;2024-02-15T12:28:53;13.40;39.50
80232;DHT22;74189;42.124;24.752;2024-02-15T12:31:27;13.40;39.10
80232;DHT22;74189;42.124;24.752;2024-02-15T12:34:03;13.40;39.30
80232;DHT22;74189;42.124;24.752;2024-02-15T12:36:36;13.50;39.30
80232;DHT22;74189;42.124;24.752;2024-02-15T12:39:07;13.60;39.50
80232;DHT22;74189;42.124;24.752;2024-02-15T12:41:40;13.60;39.10
80232;DHT22;74189;42.124;24.752;2024-02-15T12:44:07;13.70;38.90
80232;DHT22;74189;42.124;24.752;2024-02-15T12:46:34;13.70;38.40
80232;DHT22;74189;42.124;24.752;2024-02-15T12:49:28;13.80;38.20
80232;DHT22;74189;42.124;24.752;2024-02-15T12:52:33;14.00;38.70
80232;DHT22;74189;42.124;24.752;2024-02-15T12:55:22;14.10;37.20
80232;DHT22;74189;42.124;24.752;2024-02-15T12:57:54;14.00;37.80
80232;DHT22;74189;42.124;24.752;2024-02-15T13:00:24;13.90;38.00
80232;DHT22;74189;42.124;24.752;2024-02-15T13:03:03;13.90;38.70
80232;DHT22;74189;42.124;24.752;2024-02-15T13:05:32;13.80;38.30
80232;DHT22;74189;42.124;24.752;2024-02-15T13:10:09;14.00;38.40
80232;DHT22;74189;42.124;24.752;2024-02-15T13:12:37;14.10;38.00
80232;DHT22;74189;42.124;24.752;2024-02-15T13:15:04;14.20;37.20
80232;DHT22;74189;42.124;24.752;2024-02-15T13:17:32;14.00;37.50
80232;DHT22;74189;42.124;24.752;2024-02-15T13:20:05;13.90;37.80
80232;DHT22;74189;42.124;24.752;2024-02-15T13:22:37;14.00;37.80
80232;DHT22;74189;42.124;24.752;2024-02-15T13:25:06;14.00;37.70
80232;DHT22;74189;42.124;24.752;2024-02-15T13:27:34;14.20;37.70
80232;DHT22;74189;42.124;24.752;2024-02-15T13:30:00;14.20;36.90
80232;DHT22;74189;42.124;24.752;2024-02-15T13:32:27;14.30;37.00
80232;DHT22;74189;42.124;24.752;2024-02-15T13:34:53;14.30;36.60
80232;DHT22;74189;42.124;24.752;2024-02-15T13:37:22;14.30;37.10
80232;DHT22;74189;42.124;24.752;2024-02-15T13:39:52;14.20;36.90
80232;DHT22;74189;42.124;24.752;2024-02-15T13:42:18;14.20;37.60
80232;DHT22;74189;42.124;24.752;2024-02-15T13:44:45;14.20;37.60
80232;DHT22;74189;42.124;24.752;2024-02-15T13:47:13;14.30;37.40
80232;DHT22;74189;42.124;24.752;2024-02-15T13:49:39;14.40;37.00
80232;DHT22;74189;42.124;24.752;2024-02-15T13:52:06;14.50;36.90
80232;DHT22;74189;42.124;24.752;2024-02-15T13:54:36;14.40;36.80
80232;DHT22;74189;42.124;24.752;2024-02-15T13:57:02;14.50;36.50
80232;DHT22;74189;42.124;24.752;2024-02-15T13:59:31;14.60;36.30
80232;DHT22;74189;42.124;24.752;2024-02-15T14:01:57;14.50;36.70
80232;DHT22;74189;42.124;24.752;2024-02-15T14:04:24;14.40;36.80
80232;DHT22;74189;42.124;24.752;2024-02-15T14:06:50;14.60;36.60
80232;DHT22;74189;42.124;24.752;2024-02-15T14:09:16;14.60;36.60
80232;DHT22;74189;42.124;24.752;2024-02-15T14:11:46;14.70;36.40
80232;DHT22;74189;42.124;24.752;2024-02-15T14:14:12;14.80;36.00
80232;DHT22;74189;42.124;24.752;2024-02-15T14:16:38;14.90;35.80
80232;DHT22;74189;42.124;24.752;2024-02-15T14:19:05;14.90;35.60
80232;DHT22;74189;42.124;24.752;2024-02-15T14:21:32;14.90;35.70
80232;DHT22;74189;42.124;24.752;2024-02-15T14:23:59;14.90;36.00
80232;DHT22;74189;42.124;24.752;2024-02-15T14:26:31;15.10;35.70
80232;DHT22;74189;42.124;24.752;2024-02-15T14:28:59;15.10;34.60
80232;DHT22;74189;42.124;24.752;2024-02-15T14:31:29;15.20;34.30
80232;DHT22;74189;42.124;24.752;2024-02-15T14:34:14;15.20;34.50
80232;DHT22;74189;42.124;24.752;2024-02-15T14:36:41;15.30;34.50
80232;DHT22;74189;42.124;24.752;2024-02-15T14:39:08;15.30;34.60
80232;DHT22;74189;42.124;24.752;2024-02-15T14:41:38;15.10;34.20
80232;DHT22;74189;42.124;24.752;2024-02-15T14:44:04;15.10;35.00
80232;DHT22;74189;42.124;24.752;2024-02-15T14:46:31;15.00;35.10
80232;DHT22;74189;42.124;24.752;2024-02-15T14:49:01;14.90;35.80
80232;DHT22;74189;42.124;24.752;2024-02-15T14:51:29;14.80;36.00
80232;DHT22;74189;42.124;24.752;2024-02-15T14:53:55;14.90;36.10
80232;DHT22;74189;42.124;24.752;2024-02-15T14:56:21;14.80;35.90
80232;DHT22;74189;42.124;24.752;2024-02-15T14:58:47;14.90;35.70
80232;DHT22;74189;42.124;24.752;2024-02-15T15:01:14;14.80;35.80
80232;DHT22;74189;42.124;24.752;2024-02-15T15:03:40;14.60;36.60
80232;DHT22;74189;42.124;24.752;2024-02-15T15:06:09;14.50;37.00
80232;DHT22;74189;42.124;24.752;2024-02-15T15:08:53;14.40;36.80
80232;DHT22;74189;42.124;24.752;2024-02-15T15:11:38;14.40;37.20
80232;DHT22;74189;42.124;24.752;2024-02-15T15:14:31;14.40;37.20
80232;DHT22;74189;42.124;24.752;2024-02-15T15:16:58;14.20;37.80
80232;DHT22;74189;42.124;24.752;2024-02-15T15:19:24;14.20;37.80
80232;DHT22;74189;42.124;24.752;2024-02-15T15:21:51;14.40;37.20
80232;DHT22;74189;42.124;24.752;2024-02-15T15:24:19;14.50;36.80
80232;DHT22;74189;42.124;24.752;2024-02-15T15:26:48;14.50;36.90
80232;DHT22;74189;42.124;24.752;2024-02-15T15:29:14;14.30;37.60
80232;DHT22;74189;42.124;24.752;2024-02-15T15:31:42;14.20;37.50
80232;DHT22;74189;42.124;24.752;2024-02-15T15:34:08;14.20;37.50
80232;DHT22;74189;42.124;24.752;2024-02-15T15:36:35;14.10;37.90
80232;DHT22;74189;42.124;24.752;2024-02-15T15:39:04;14.10;38.30
80232;DHT22;74189;42.124;24.752;2024-02-15T15:41:35;13.90;38.80
80232;DHT22;74189;42.124;24.752;2024-02-15T15:44:01;14.10;38.00
80232;DHT22;74189;42.124;24.752;2024-02-15T15:46:27;14.00;37.90
80232;DHT22;74189;42.124;24.752;2024-02-15T15:48:53;14.00;38.20